sensor_id;sensor_type;location;lat;lon;timestamp;pressure;altitude;pressure_sealevel;temperature;humidity
28306;BME280;7516;43.570;1.448;2023-02-18T00:00:34;101104.94;;;8.43;98.90
28306;BME280;7516;43.570;1.448;2023-02-18T00:03:01;101106.84;;;8.41;98.84
28306;BME280;7516;43.570;1.448;2023-02-18T00:05:29;101104.59;;;8.36;99.30
28306;BME280;7516;43.570;1.448;2023-02-18T00:07:57;101110.91;;;8.34;99.49
28306;BME280;7516;43.570;1.448;2023-02-18T00:10:24;101102.34;;;8.32;99.35
28306;BME280;7516;43.570;1.448;2023-02-18T00:12:52;101105.88;;;8.30;99.66
28306;BME280;7516;43.570;1.448;2023-02-18T00:15:21;101096.50;;;8.28;98.81
28306;BME280;7516;43.570;1.448;2023-02-18T00:17:48;101094.03;;;8.26;98.71
28306;BME280;7516;43.570;1.448;2023-02-18T00:20:16;101093.44;;;8.23;98.76
28306;BME280;7516;43.570;1.448;2023-02-18T00:22:43;101089.28;;;8.20;98.78
28306;BME280;7516;43.570;1.448;2023-02-18T00:25:11;101088.56;;;8.18;98.72
28306;BME280;7516;43.570;1.448;2023-02-18T00:27:38;101090.38;;;8.18;98.74
28306;BME280;7516;43.570;1.448;2023-02-18T00:30:07;101084.34;;;8.17;99.22
28306;BME280;7516;43.570;1.448;2023-02-18T00:32:36;101077.69;;;8.13;100.00
28306;BME280;7516;43.570;1.448;2023-02-18T00:35:04;101076.13;;;8.11;99.33
28306;BME280;7516;43.570;1.448;2023-02-18T00:37:31;101078.88;;;8.09;99.79
28306;BME280;7516;43.570;1.448;2023-02-18T00:39:59;101084.34;;;8.06;100.00
28306;BME280;7516;43.570;1.448;2023-02-18T00:42:26;101076.88;;;8.02;100.00
28306;BME280;7516;43.570;1.448;2023-02-18T00:44:54;101083.03;;;8.01;100.00
28306;BME280;7516;43.570;1.448;2023-02-18T00:47:21;101075.34;;;7.99;100.00
28306;BME280;7516;43.570;1.448;2023-02-18T00:49:50;101080.81;;;7.96;100.00
28306;BME280;7516;43.570;1.448;2023-02-18T00:52:18;101088.75;;;7.94;100.00
28306;BME280;7516;43.570;1.448;2023-02-18T00:54:45;101083.78;;;7.91;100.00
28306;BME280;7516;43.570;1.448;2023-02-18T00:57:13;101087.47;;;7.89;100.00
28306;BME280;7516;43.570;1.448;2023-02-18T00:59:40;101081.53;;;7.87;100.00
28306;BME280;7516;43.570;1.448;2023-02-18T01:02:08;101079.97;;;7.84;100.00
28306;BME280;7516;43.570;1.448;2023-02-18T01:04:35;101077.63;;;7.81;100.00
28306;BME280;7516;43.570;1.448;2023-02-18T01:07:04;101075.38;;;7.77;100.00
28306;BME280;7516;43.570;1.448;2023-02-18T01:09:32;101078.09;;;7.75;100.00
28306;BME280;7516;43.570;1.448;2023-02-18T01:11:59;101082.47;;;7.75;100.00
28306;BME280;7516;43.570;1.448;2023-02-18T01:14:27;101080.84;;;7.74;100.00
28306;BME280;7516;43.570;1.448;2023-02-18T01:16:55;101085.22;;;7.73;100.00
28306;BME280;7516;43.570;1.448;2023-02-18T01:19:22;101083.69;;;7.71;100.00
28306;BME280;7516;43.570;1.448;2023-02-18T01:21:50;101084.63;;;7.70;100.00
28306;BME280;7516;43.570;1.448;2023-02-18T01:24:18;101082.97;;;7.69;100.00
28306;BME280;7516;43.570;1.448;2023-02-18T01:26:46;101083.19;;;7.66;100.00
28306;BME280;7516;43.570;1.448;2023-02-18T01:29:13;101074.78;;;7.62;100.00
28306;BME280;7516;43.570;1.448;2023-02-18T01:31:41;101064.47;;;7.61;100.00
28306;BME280;7516;43.570;1.448;2023-02-18T01:34:09;101070.53;;;7.61;100.00
28306;BME280;7516;43.570;1.448;2023-02-18T01:36:36;101061.97;;;7.59;100.00
28306;BME280;7516;43.570;1.448;2023-02-18T01:39:05;101057.81;;;7.56;100.00
28306;BME280;7516;43.570;1.448;2023-02-18T01:41:34;101058.78;;;7.55;100.00
28306;BME280;7516;43.570;1.448;2023-02-18T01:44:12;101062.56;;;7.51;100.00
28306;BME280;7516;43.570;1.448;2023-02-18T01:46:40;101068.16;;;7.47;100.00
28306;BME280;7516;43.570;1.448;2023-02-18T01:49:09;101069.94;;;7.46;100.00
28306;BME280;7516;43.570;1.448;2023-02-18T01:51:40;101061.28;;;7.46;100.00
28306;BME280;7516;43.570;1.448;2023-02-18T01:54:12;101068.38;;;7.44;100.00
28306;BME280;7516;43.570;1.448;2023-02-18T01:56:45;101062.56;;;7.40;100.00
28306;BME280;7516;43.570;1.448;2023-02-18T01:59:18;101059.97;;;7.40;100.00
28306;BME280;7516;43.570;1.448;2023-02-18T02:01:47;101063.50;;;7.39;100.00
28306;BME280;7516;43.570;1.448;2023-02-18T02:04:15;101063.50;;;7.39;100.00
28306;BME280;7516;43.570;1.448;2023-02-18T02:06:43;101064.72;;;7.35;100.00
28306;BME280;7516;43.570;1.448;2023-02-18T02:09:14;101064.94;;;7.32;100.00
28306;BME280;7516;43.570;1.448;2023-02-18T02:12:08;101061.75;;;7.29;100.00
28306;BME280;7516;43.570;1.448;2023-02-18T02:14:59;101057.47;;;7.28;100.00
28306;BME280;7516;43.570;1.448;2023-02-18T02:17:36;101067.06;;;7.27;100.00
28306;BME280;7516;43.570;1.448;2023-02-18T02:27:10;101053.09;;;7.17;100.00
28306;BME280;7516;43.570;1.448;2023-02-18T02:36:04;101044.66;;;7.13;100.00
28306;BME280;7516;43.570;1.448;2023-02-18T02:38:39;101048.19;;;7.12;100.00
28306;BME280;7516;43.570;1.448;2023-02-18T02:41:18;101049.28;;;7.10;100.00
28306;BME280;7516;43.570;1.448;2023-02-18T02:43:52;101039.91;;;7.07;100.00
28306;BME280;7516;43.570;1.448;2023-02-18T02:46:27;101041.81;;;7.05;100.00
28306;BME280;7516;43.570;1.448;2023-02-18T02:49:02;101034.09;;;7.04;100.00
28306;BME280;7516;43.570;1.448;2023-02-18T02:51:39;101037.66;;;7.03;100.00
28306;BME280;7516;43.570;1.448;2023-02-18T02:54:13;101036.00;;;7.02;100.00
28306;BME280;7516;43.570;1.448;2023-02-18T02:56:41;101033.41;;;7.02;100.00
28306;BME280;7516;43.570;1.448;2023-02-18T02:59:11;101032.69;;;7.00;100.00
28306;BME280;7516;43.570;1.448;2023-02-18T03:01:51;101024.97;;;6.98;100.00
28306;BME280;7516;43.570;1.448;2023-02-18T03:04:38;101030.31;;;6.97;100.00
28306;BME280;7516;43.570;1.448;2023-02-18T03:07:27;101027.81;;;6.95;100.00
28306;BME280;7516;43.570;1.448;2023-02-18T03:10:14;101035.03;;;6.92;100.00
28306;BME280;7516;43.570;1.448;2023-02-18T03:12:48;101036.09;;;6.89;100.00
28306;BME280;7516;43.570;1.448;2023-02-18T03:15:25;101031.94;;;6.87;100.00
28306;BME280;7516;43.570;1.448;2023-02-18T03:17:57;101035.00;;;6.80;100.00
28306;BME280;7516;43.570;1.448;2023-02-18T03:20:33;101025.53;;;6.79;100.00
28306;BME280;7516;43.570;1.448;2023-02-18T03:23:06;101030.75;;;6.79;100.00
28306;BME280;7516;43.570;1.448;2023-02-18T03:25:36;101017.81;;;6.78;100.00
28306;BME280;7516;43.570;1.448;2023-02-18T03:28:07;101019.75;;;6.76;100.00
28306;BME280;7516;43.570;1.448;2023-02-18T03:30:41;101013.09;;;6.72;100.00
28306;BME280;7516;43.570;1.448;2023-02-18T03:33:12;101011.53;;;6.69;100.00
28306;BME280;7516;43.570;1.448;2023-02-18T03:35:43;101017.56;;;6.70;100.00
28306;BME280;7516;43.570;1.448;2023-02-18T03:38:15;101017.72;;;6.68;100.00
28306;BME280;7516;43.570;1.448;2023-02-18T03:40:46;101010.84;;;6.67;100.00
28306;BME280;7516;43.570;1.448;2023-02-18T03:43:14;101012.72;;;6.65;100.00
28306;BME280;7516;43.570;1.448;2023-02-18T03:45:41;101002.31;;;6.65;100.00
28306;BME280;7516;43.570;1.448;2023-02-18T03:48:09;101004.19;;;6.63;100.00
28306;BME280;7516;43.570;1.448;2023-02-18T03:50:37;101005.13;;;6.62;100.00
28306;BME280;7516;43.570;1.448;2023-02-18T03:53:04;100994.97;;;6.59;100.00
28306;BME280;7516;43.570;1.448;2023-02-18T03:55:33;101005.59;;;6.56;100.00
28306;BME280;7516;43.570;1.448;2023-02-18T03:58:01;101002.28;;;6.54;100.00
28306;BME280;7516;43.570;1.448;2023-02-18T04:00:28;101006.75;;;6.52;100.00
28306;BME280;7516;43.570;1.448;2023-02-18T04:02:56;100999.88;;;6.51;100.00
28306;BME280;7516;43.570;1.448;2023-02-18T04:05:23;101006.88;;;6.51;100.00
28306;BME280;7516;43.570;1.448;2023-02-18T04:07:51;101008.66;;;6.50;100.00
28306;BME280;7516;43.570;1.448;2023-02-18T04:10:18;101004.41;;;6.49;100.00
28306;BME280;7516;43.570;1.448;2023-02-18T04:12:49;101003.69;;;6.47;100.00
28306;BME280;7516;43.570;1.448;2023-02-18T04:15:16;100997.84;;;6.43;100.00
28306;BME280;7516;43.570;1.448;2023-02-18T04:17:44;100999.88;;;6.40;100.00
28306;BME280;7516;43.570;1.448;2023-02-18T04:20:12;100995.59;;;6.39;100.00
28306;BME280;7516;43.570;1.448;2023-02-18T04:22:39;100995.59;;;6.39;100.00
28306;BME280;7516;43.570;1.448;2023-02-18T04:25:07;101001.75;;;6.38;100.00
28306;BME280;7516;43.570;1.448;2023-02-18T04:27:35;100993.22;;;6.36;100.00
28306;BME280;7516;43.570;1.448;2023-02-18T04:30:05;100995.81;;;6.36;100.00
28306;BME280;7516;43.570;1.448;2023-02-18T04:32:32;101005.41;;;6.35;100.00
28306;BME280;7516;43.570;1.448;2023-02-18T04:35:00;101010.72;;;6.34;100.00
28306;BME280;7516;43.570;1.448;2023-02-18T04:37:28;101010.84;;;6.32;100.00
28306;BME280;7516;43.570;1.448;2023-02-18T04:39:56;101005.75;;;6.31;100.00
28306;BME280;7516;43.570;1.448;2023-02-18T04:42:24;101008.47;;;6.29;100.00
28306;BME280;7516;43.570;1.448;2023-02-18T04:44:51;101003.34;;;6.28;100.00
28306;BME280;7516;43.570;1.448;2023-02-18T04:47:20;100998.38;;;6.25;100.00
28306;BME280;7516;43.570;1.448;2023-02-18T04:49:48;100998.63;;;6.22;100.00
28306;BME280;7516;43.570;1.448;2023-02-18T04:52:15;101000.59;;;6.18;100.00
28306;BME280;7516;43.570;1.448;2023-02-18T04:54:43;101000.69;;;6.17;100.00
28306;BME280;7516;43.570;1.448;2023-02-18T04:57:11;100989.47;;;6.16;100.00
28306;BME280;7516;43.570;1.448;2023-02-18T04:59:38;100995.75;;;6.14;100.00
28306;BME280;7516;43.570;1.448;2023-02-18T05:02:06;101006.97;;;6.14;100.00
28306;BME280;7516;43.570;1.448;2023-02-18T05:04:35;101005.22;;;6.15;100.00
28306;BME280;7516;43.570;1.448;2023-02-18T05:07:02;101000.22;;;6.12;100.00
28306;BME280;7516;43.570;1.448;2023-02-18T05:09:30;101006.25;;;6.12;100.00
28306;BME280;7516;43.570;1.448;2023-02-18T05:11:57;101004.81;;;6.08;100.00
28306;BME280;7516;43.570;1.448;2023-02-18T05:14:25;101012.84;;;6.05;100.00
28306;BME280;7516;43.570;1.448;2023-02-18T05:16:52;101014.63;;;6.04;100.00
28306;BME280;7516;43.570;1.448;2023-02-18T05:19:20;101010.34;;;6.03;100.00
28306;BME280;7516;43.570;1.448;2023-02-18T05:21:49;101003.50;;;6.02;100.00
28306;BME280;7516;43.570;1.448;2023-02-18T05:24:17;101017.31;;;6.03;100.00
28306;BME280;7516;43.570;1.448;2023-02-18T05:26:44;101019.19;;;6.01;100.00
28306;BME280;7516;43.570;1.448;2023-02-18T05:29:12;101016.72;;;5.99;100.00
28306;BME280;7516;43.570;1.448;2023-02-18T05:31:39;101022.84;;;5.98;100.00
28306;BME280;7516;43.570;1.448;2023-02-18T05:34:07;101025.44;;;5.98;100.00
28306;BME280;7516;43.570;1.448;2023-02-18T05:36:34;101025.59;;;5.97;100.00
28306;BME280;7516;43.570;1.448;2023-02-18T05:39:03;101023.09;;;5.95;100.00
28306;BME280;7516;43.570;1.448;2023-02-18T05:41:31;101019.75;;;5.93;100.00
28306;BME280;7516;43.570;1.448;2023-02-18T05:43:59;101015.50;;;5.92;100.00
28306;BME280;7516;43.570;1.448;2023-02-18T05:46:43;101019.03;;;5.91;100.00
28306;BME280;7516;43.570;1.448;2023-02-18T05:49:11;101020.69;;;5.92;100.00
28306;BME280;7516;43.570;1.448;2023-02-18T05:51:38;101023.41;;;5.91;100.00
28306;BME280;7516;43.570;1.448;2023-02-18T05:54:07;101021.88;;;5.88;100.00
28306;BME280;7516;43.570;1.448;2023-02-18T05:56:35;101023.72;;;5.86;100.00
28306;BME280;7516;43.570;1.448;2023-02-18T05:59:03;101021.09;;;5.86;100.00
28306;BME280;7516;43.570;1.448;2023-02-18T06:01:30;101018.50;;;5.86;100.00
28306;BME280;7516;43.570;1.448;2023-02-18T06:03:58;101015.19;;;5.84;100.00
28306;BME280;7516;43.570;1.448;2023-02-18T06:06:25;101011.84;;;5.82;100.00
28306;BME280;7516;43.570;1.448;2023-02-18T06:08:53;101018.94;;;5.80;100.00
28306;BME280;7516;43.570;1.448;2023-02-18T06:11:22;101015.63;;;5.78;100.00
28306;BME280;7516;43.570;1.448;2023-02-18T06:13:49;101008.75;;;5.77;100.00
28306;BME280;7516;43.570;1.448;2023-02-18T06:16:17;101005.13;;;5.80;100.00
28306;BME280;7516;43.570;1.448;2023-02-18T06:18:44;101007.00;;;5.78;100.00
28306;BME280;7516;43.570;1.448;2023-02-18T06:21:12;101012.28;;;5.76;100.00
28306;BME280;7516;43.570;1.448;2023-02-18T06:23:39;101011.34;;;5.77;100.00
28306;BME280;7516;43.570;1.448;2023-02-18T06:26:07;101010.53;;;5.77;100.00
28306;BME280;7516;43.570;1.448;2023-02-18T06:28:36;101012.28;;;5.76;100.00
28306;BME280;7516;43.570;1.448;2023-02-18T06:31:04;101013.97;;;5.77;100.00
28306;BME280;7516;43.570;1.448;2023-02-18T06:33:31;101016.56;;;5.77;100.00
28306;BME280;7516;43.570;1.448;2023-02-18T06:36:00;101010.63;;;5.75;100.00
28306;BME280;7516;43.570;1.448;2023-02-18T06:38:28;101009.22;;;5.71;100.00
28306;BME280;7516;43.570;1.448;2023-02-18T06:40:56;101017.94;;;5.70;100.00
28306;BME280;7516;43.570;1.448;2023-02-18T06:43:23;101012.94;;;5.67;100.00
28306;BME280;7516;43.570;1.448;2023-02-18T06:45:52;101014.81;;;5.65;100.00
28306;BME280;7516;43.570;1.448;2023-02-18T06:48:20;101014.91;;;5.63;100.00
28306;BME280;7516;43.570;1.448;2023-02-18T06:50:48;101009.84;;;5.62;100.00
28306;BME280;7516;43.570;1.448;2023-02-18T06:53:15;101009.97;;;5.60;100.00
28306;BME280;7516;43.570;1.448;2023-02-18T06:55:43;101015.25;;;5.59;100.00
28306;BME280;7516;43.570;1.448;2023-02-18T06:58:12;101018.59;;;5.61;100.00
28306;BME280;7516;43.570;1.448;2023-02-18T07:00:40;101019.28;;;5.63;100.00
28306;BME280;7516;43.570;1.448;2023-02-18T07:03:11;101016.69;;;5.63;100.00
28306;BME280;7516;43.570;1.448;2023-02-18T07:05:38;101015.75;;;5.64;100.00
28306;BME280;7516;43.570;1.448;2023-02-18T07:08:06;101024.38;;;5.64;100.00
28306;BME280;7516;43.570;1.448;2023-02-18T07:10:34;101025.22;;;5.65;100.00
28306;BME280;7516;43.570;1.448;2023-02-18T07:13:01;101029.59;;;5.64;100.00
28306;BME280;7516;43.570;1.448;2023-02-18T07:15:29;101028.53;;;5.67;100.00
28306;BME280;7516;43.570;1.448;2023-02-18T07:17:56;101030.22;;;5.68;100.00
28306;BME280;7516;43.570;1.448;2023-02-18T07:20:26;101032.72;;;5.70;100.00
28306;BME280;7516;43.570;1.448;2023-02-18T07:22:54;101033.31;;;5.73;100.00
28306;BME280;7516;43.570;1.448;2023-02-18T07:25:22;101030.50;;;5.76;100.00
28306;BME280;7516;43.570;1.448;2023-02-18T07:27:50;101026.03;;;5.78;100.00
28306;BME280;7516;43.570;1.448;2023-02-18T07:30:19;101035.25;;;5.82;100.00
28306;BME280;7516;43.570;1.448;2023-02-18T07:32:46;101042.84;;;5.85;100.00
28306;BME280;7516;43.570;1.448;2023-02-18T07:35:15;101036.66;;;5.88;100.00
28306;BME280;7516;43.570;1.448;2023-02-18T07:37:48;101034.75;;;5.90;100.00
28306;BME280;7516;43.570;1.448;2023-02-18T07:40:18;101044.72;;;5.96;100.00
28306;BME280;7516;43.570;1.448;2023-02-18T07:42:45;101048.88;;;5.98;100.00
28306;BME280;7516;43.570;1.448;2023-02-18T07:45:13;101051.47;;;5.98;100.00
28306;BME280;7516;43.570;1.448;2023-02-18T07:47:41;101052.09;;;6.02;100.00
28306;BME280;7516;43.570;1.448;2023-02-18T07:50:11;101043.25;;;6.04;100.00
28306;BME280;7516;43.570;1.448;2023-02-18T07:52:39;101060.28;;;6.09;100.00
28306;BME280;7516;43.570;1.448;2023-02-18T07:55:08;101049.56;;;6.13;100.00
28306;BME280;7516;43.570;1.448;2023-02-18T07:57:35;101057.97;;;6.17;100.00
28306;BME280;7516;43.570;1.448;2023-02-18T08:00:23;101052.34;;;6.23;100.00
28306;BME280;7516;43.570;1.448;2023-02-18T08:02:50;101057.28;;;6.26;100.00
28306;BME280;7516;43.570;1.448;2023-02-18T08:05:18;101061.44;;;6.28;100.00
28306;BME280;7516;43.570;1.448;2023-02-18T08:07:45;101068.94;;;6.33;100.00
28306;BME280;7516;43.570;1.448;2023-02-18T08:10:14;101061.63;;;6.38;100.00
28306;BME280;7516;43.570;1.448;2023-02-18T08:12:42;101065.88;;;6.39;100.00
28306;BME280;7516;43.570;1.448;2023-02-18T08:15:09;101066.38;;;6.44;100.00
28306;BME280;7516;43.570;1.448;2023-02-18T08:17:37;101059.06;;;6.49;100.00
28306;BME280;7516;43.570;1.448;2023-02-18T08:20:06;101068.31;;;6.53;100.00
28306;BME280;7516;43.570;1.448;2023-02-18T08:22:34;101064.31;;;6.60;100.00
28306;BME280;7516;43.570;1.448;2023-02-18T08:25:02;101067.53;;;6.64;100.00
28306;BME280;7516;43.570;1.448;2023-02-18T08:27:31;101062.94;;;6.67;100.00
28306;BME280;7516;43.570;1.448;2023-02-18T08:29:58;101064.13;;;6.74;100.00
28306;BME280;7516;43.570;1.448;2023-02-18T08:32:26;101064.72;;;6.78;100.00
28306;BME280;7516;43.570;1.448;2023-02-18T08:34:54;101064.28;;;6.84;100.00
28306;BME280;7516;43.570;1.448;2023-02-18T08:37:22;101064.66;;;6.91;100.00
28306;BME280;7516;43.570;1.448;2023-02-18T08:39:50;101069.38;;;6.97;100.00
28306;BME280;7516;43.570;1.448;2023-02-18T08:42:18;101075.09;;;7.02;100.00
28306;BME280;7516;43.570;1.448;2023-02-18T08:44:47;101079.13;;;7.06;100.00
28306;BME280;7516;43.570;1.448;2023-02-18T08:47:14;101079.84;;;7.08;100.00
28306;BME280;7516;43.570;1.448;2023-02-18T08:49:42;101085.78;;;7.10;100.00
28306;BME280;7516;43.570;1.448;2023-02-18T08:52:10;101087.19;;;7.14;100.00
28306;BME280;7516;43.570;1.448;2023-02-18T08:54:37;101084.34;;;7.17;100.00
28306;BME280;7516;43.570;1.448;2023-02-18T08:57:05;101078.78;;;7.22;100.00
28306;BME280;7516;43.570;1.448;2023-02-18T08:59:32;101079.28;;;7.27;100.00
28306;BME280;7516;43.570;1.448;2023-02-18T09:02:01;101080.56;;;7.32;100.00
28306;BME280;7516;43.570;1.448;2023-02-18T09:04:29;101077.53;;;7.38;100.00
28306;BME280;7516;43.570;1.448;2023-02-18T09:06:57;101082.16;;;7.46;100.00
28306;BME280;7516;43.570;1.448;2023-02-18T09:09:24;101081.66;;;7.52;100.00
28306;BME280;7516;43.570;1.448;2023-02-18T09:11:52;101086.28;;;7.60;100.00
28306;BME280;7516;43.570;1.448;2023-02-18T09:14:19;101086.63;;;7.66;100.00
28306;BME280;7516;43.570;1.448;2023-02-18T09:16:47;101086.19;;;7.72;100.00
28306;BME280;7516;43.570;1.448;2023-02-18T09:19:17;101089.97;;;7.79;100.00
28306;BME280;7516;43.570;1.448;2023-02-18T09:21:45;101091.97;;;7.87;100.00
28306;BME280;7516;43.570;1.448;2023-02-18T09:24:12;101092.19;;;7.95;100.00
28306;BME280;7516;43.570;1.448;2023-02-18T09:26:40;101088.84;;;8.04;100.00
28306;BME280;7516;43.570;1.448;2023-02-18T09:29:08;101090.03;;;8.11;100.00
28306;BME280;7516;43.570;1.448;2023-02-18T09:31:36;101085.97;;;8.18;100.00
28306;BME280;7516;43.570;1.448;2023-02-18T09:34:05;101084.41;;;8.27;100.00
28306;BME280;7516;43.570;1.448;2023-02-18T09:36:34;101089.31;;;8.32;100.00
28306;BME280;7516;43.570;1.448;2023-02-18T09:39:01;101089.63;;;8.38;100.00
28306;BME280;7516;43.570;1.448;2023-02-18T09:41:35;101084.72;;;8.45;100.00
28306;BME280;7516;43.570;1.448;2023-02-18T09:44:08;101076.28;;;8.52;100.00
28306;BME280;7516;43.570;1.448;2023-02-18T09:46:40;101081.13;;;8.57;100.00
28306;BME280;7516;43.570;1.448;2023-02-18T09:49:14;101081.44;;;8.63;100.00
28306;BME280;7516;43.570;1.448;2023-02-18T09:51:45;101073.13;;;8.70;100.00
28306;BME280;7516;43.570;1.448;2023-02-18T09:54:15;101072.75;;;8.74;100.00
28306;BME280;7516;43.570;1.448;2023-02-18T09:56:45;101075.81;;;8.79;100.00
28306;BME280;7516;43.570;1.448;2023-02-18T09:59:16;101076.97;;;8.86;100.00
28306;BME280;7516;43.570;1.448;2023-02-18T10:01:46;101081.69;;;8.92;100.00
28306;BME280;7516;43.570;1.448;2023-02-18T10:04:19;101080.19;;;8.99;100.00
28306;BME280;7516;43.570;1.448;2023-02-18T10:06:52;101078.72;;;9.06;100.00
28306;BME280;7516;43.570;1.448;2023-02-18T10:09:21;101077.41;;;9.12;100.00
28306;BME280;7516;43.570;1.448;2023-02-18T10:11:54;101075.09;;;9.19;100.00
28306;BME280;7516;43.570;1.448;2023-02-18T10:14:22;101064.94;;;9.25;100.00
28306;BME280;7516;43.570;1.448;2023-02-18T10:16:51;101059.22;;;9.31;100.00
28306;BME280;7516;43.570;1.448;2023-02-18T10:19:22;101052.63;;;9.37;100.00
28306;BME280;7516;43.570;1.448;2023-02-18T10:21:54;101060.63;;;9.45;100.00
28306;BME280;7516;43.570;1.448;2023-02-18T10:24:28;101054.19;;;9.49;100.00
28306;BME280;7516;43.570;1.448;2023-02-18T10:26:57;101056.28;;;9.55;100.00
28306;BME280;7516;43.570;1.448;2023-02-18T10:29:26;101052.41;;;9.59;100.00
28306;BME280;7516;43.570;1.448;2023-02-18T10:31:56;101056.44;;;9.63;100.00
28306;BME280;7516;43.570;1.448;2023-02-18T10:34:40;101055.91;;;9.69;100.00
28306;BME280;7516;43.570;1.448;2023-02-18T10:37:23;101042.13;;;9.77;100.00
28306;BME280;7516;43.570;1.448;2023-02-18T10:40:05;101050.31;;;9.84;100.00
28306;BME280;7516;43.570;1.448;2023-02-18T10:42:42;101047.97;;;9.90;100.00
28306;BME280;7516;43.570;1.448;2023-02-18T10:45:20;101036.94;;;9.96;100.00
28306;BME280;7516;43.570;1.448;2023-02-18T10:47:57;101032.97;;;10.02;100.00
28306;BME280;7516;43.570;1.448;2023-02-18T10:50:32;101039.47;;;10.07;100.00
28306;BME280;7516;43.570;1.448;2023-02-18T10:53:16;101030.22;;;10.13;100.00
28306;BME280;7516;43.570;1.448;2023-02-18T10:55:46;101028.75;;;10.20;100.00
28306;BME280;7516;43.570;1.448;2023-02-18T10:58:27;101029.88;;;10.27;100.00
28306;BME280;7516;43.570;1.448;2023-02-18T11:00:56;101024.06;;;10.33;100.00
28306;BME280;7516;43.570;1.448;2023-02-18T11:03:24;101021.56;;;10.41;100.00
28306;BME280;7516;43.570;1.448;2023-02-18T11:05:55;101019.78;;;10.51;100.00
28306;BME280;7516;43.570;1.448;2023-02-18T11:08:26;101023.78;;;10.55;100.00
28306;BME280;7516;43.570;1.448;2023-02-18T11:10:55;101014.66;;;10.60;100.00
28306;BME280;7516;43.570;1.448;2023-02-18T11:13:25;101024.59;;;10.66;100.00
28306;BME280;7516;43.570;1.448;2023-02-18T11:15:56;101019.06;;;10.69;100.00
28306;BME280;7516;43.570;1.448;2023-02-18T11:18:36;101015.22;;;10.73;100.00
28306;BME280;7516;43.570;1.448;2023-02-18T11:21:09;101013.69;;;10.80;100.00
28306;BME280;7516;43.570;1.448;2023-02-18T11:23:47;101009.66;;;10.85;100.00
28306;BME280;7516;43.570;1.448;2023-02-18T11:26:17;101006.06;;;10.96;100.00
28306;BME280;7516;43.570;1.448;2023-02-18T11:28:49;101008.50;;;11.07;100.00
28306;BME280;7516;43.570;1.448;2023-02-18T11:31:22;101004.34;;;11.14;100.00
28306;BME280;7516;43.570;1.448;2023-02-18T11:33:51;100999.47;;;11.19;100.00
28306;BME280;7516;43.570;1.448;2023-02-18T11:36:23;100998.22;;;11.23;100.00
28306;BME280;7516;43.570;1.448;2023-02-18T11:38:55;101000.41;;;11.28;100.00
28306;BME280;7516;43.570;1.448;2023-02-18T11:41:31;100987.84;;;11.31;100.00
28306;BME280;7516;43.570;1.448;2023-02-18T11:44:01;100986.56;;;11.36;100.00
28306;BME280;7516;43.570;1.448;2023-02-18T11:46:30;100986.66;;;11.44;100.00
28306;BME280;7516;43.570;1.448;2023-02-18T11:49:11;100978.22;;;11.50;100.00
28306;BME280;7516;43.570;1.448;2023-02-18T11:51:48;100983.97;;;11.53;100.00
28306;BME280;7516;43.570;1.448;2023-02-18T11:54:26;100972.75;;;11.61;100.00
28306;BME280;7516;43.570;1.448;2023-02-18T11:56:56;100971.19;;;11.68;100.00
28306;BME280;7516;43.570;1.448;2023-02-18T11:59:25;100964.13;;;11.78;100.00
28306;BME280;7516;43.570;1.448;2023-02-18T12:01:58;100958.94;;;11.86;100.00
28306;BME280;7516;43.570;1.448;2023-02-18T12:04:30;100959.69;;;11.96;100.00
28306;BME280;7516;43.570;1.448;2023-02-18T12:07:11;100941.28;;;11.96;100.00
28306;BME280;7516;43.570;1.448;2023-02-18T12:09:45;100953.44;;;11.97;100.00
28306;BME280;7516;43.570;1.448;2023-02-18T12:12:16;100948.59;;;12.02;100.00
28306;BME280;7516;43.570;1.448;2023-02-18T12:14:45;100943.34;;;12.02;100.00
28306;BME280;7516;43.570;1.448;2023-02-18T12:17:40;100926.59;;;12.03;100.00
28306;BME280;7516;43.570;1.448;2023-02-18T12:20:33;100925.00;;;12.11;100.00
28306;BME280;7516;43.570;1.448;2023-02-18T12:23:14;100932.28;;;12.17;100.00
28306;BME280;7516;43.570;1.448;2023-02-18T12:25:54;100919.53;;;12.22;100.00
28306;BME280;7516;43.570;1.448;2023-02-18T12:28:34;100916.94;;;12.30;100.00
28306;BME280;7516;43.570;1.448;2023-02-18T12:31:25;100915.81;;;12.32;100.00
28306;BME280;7516;43.570;1.448;2023-02-18T12:37:01;100903.25;;;12.44;100.00
28306;BME280;7516;43.570;1.448;2023-02-18T12:39:44;100909.72;;;12.58;100.00
28306;BME280;7516;43.570;1.448;2023-02-18T12:42:30;100905.72;;;12.71;100.00
28306;BME280;7516;43.570;1.448;2023-02-18T12:45:22;100894.69;;;12.76;100.00
28306;BME280;7516;43.570;1.448;2023-02-18T12:51:10;100883.41;;;12.84;100.00
28306;BME280;7516;43.570;1.448;2023-02-18T12:53:57;100877.53;;;12.90;100.00
28306;BME280;7516;43.570;1.448;2023-02-18T13:02:32;100864.25;;;13.07;100.00
28306;BME280;7516;43.570;1.448;2023-02-18T13:05:08;100857.19;;;13.08;100.00
28306;BME280;7516;43.570;1.448;2023-02-18T13:07:52;100857.91;;;13.18;100.00
28306;BME280;7516;43.570;1.448;2023-02-18T13:13:21;100841.50;;;13.32;100.00
28306;BME280;7516;43.570;1.448;2023-02-18T13:15:54;100836.53;;;13.37;100.00
28306;BME280;7516;43.570;1.448;2023-02-18T13:18:26;100833.59;;;13.32;100.00
28306;BME280;7516;43.570;1.448;2023-02-18T13:20:58;100826.69;;;13.31;100.00
28306;BME280;7516;43.570;1.448;2023-02-18T13:23:30;100834.13;;;13.44;100.00
28306;BME280;7516;43.570;1.448;2023-02-18T13:26:00;100821.09;;;13.50;100.00
28306;BME280;7516;43.570;1.448;2023-02-18T13:28:34;100822.09;;;13.57;100.00
28306;BME280;7516;43.570;1.448;2023-02-18T13:31:18;100815.53;;;13.70;100.00
28306;BME280;7516;43.570;1.448;2023-02-18T13:33:55;100819.66;;;13.80;100.00
28306;BME280;7516;43.570;1.448;2023-02-18T13:36:35;100812.22;;;13.84;100.00
28306;BME280;7516;43.570;1.448;2023-02-18T13:39:08;100801.69;;;13.84;100.00
28306;BME280;7516;43.570;1.448;2023-02-18T13:41:44;100802.81;;;13.81;100.00
28306;BME280;7516;43.570;1.448;2023-02-18T13:44:45;100801.34;;;13.87;100.00